createdAt,value
2018-03-28T00:02:09.198Z,23.97
2018-03-28T00:04:37.448Z,25.77
2018-03-28T00:07:04.946Z,26.47
2018-03-28T00:09:32.437Z,25.60
2018-03-28T00:11:59.922Z,23.17
2018-03-28T00:14:27.448Z,23.20
2018-03-28T00:16:54.942Z,24.20
2018-03-28T00:19:22.445Z,27.60
2018-03-28T00:21:49.961Z,24.10
2018-03-28T00:24:17.420Z,25.47
2018-03-28T00:26:45.204Z,27.60
2018-03-28T00:29:13.461Z,27.10
2018-03-28T00:31:40.950Z,26.30
2018-03-28T00:34:08.457Z,27.23
2018-03-28T00:36:35.933Z,26.50
2018-03-28T00:39:03.414Z,25.40
2018-03-28T00:41:30.925Z,27.07
2018-03-28T00:43:58.426Z,27.17
2018-03-28T00:46:25.945Z,26.63
2018-03-28T00:48:53.446Z,25.90
2018-03-28T00:51:32.901Z,25.97
2018-03-28T00:54:00.407Z,25.37
2018-03-28T00:56:27.893Z,24.70
2018-03-28T00:58:56.147Z,24.83
2018-03-28T01:01:23.659Z,25.70
2018-03-28T01:03:51.139Z,24.43
2018-03-28T01:06:20.590Z,26.77
2018-03-28T01:08:48.078Z,25.83
2018-03-28T01:11:15.562Z,26.63
2018-03-28T01:13:43.066Z,26.17
2018-03-28T01:16:10.543Z,25.07
2018-03-28T01:18:38.022Z,26.23
2018-03-28T01:21:05.530Z,25.30
2018-03-28T01:23:33.780Z,27.90
2018-03-28T01:26:01.266Z,27.90
2018-03-28T01:28:28.815Z,25.13
2018-03-28T01:30:57.064Z,26.17
2018-03-28T01:33:24.542Z,30.23
2018-03-28T01:35:52.816Z,25.47
2018-03-28T01:38:21.069Z,26.27
2018-03-28T01:40:48.565Z,26.00
2018-03-28T01:43:17.032Z,26.33
2018-03-28T01:45:45.280Z,26.73
2018-03-28T01:48:12.750Z,28.50
2018-03-28T01:50:40.258Z,27.07
2018-03-28T01:53:07.794Z,28.37
2018-03-28T01:55:35.227Z,29.20
2018-03-28T01:58:02.718Z,27.47
2018-03-28T02:00:30.203Z,26.90
2018-03-28T02:02:57.678Z,28.30
2018-03-28T02:05:25.191Z,28.10
2018-03-28T02:07:52.665Z,27.63
2018-03-28T02:10:20.145Z,26.47
2018-03-28T02:12:47.655Z,26.67
2018-03-28T02:15:15.140Z,27.30
2018-03-28T02:17:42.627Z,27.83
2018-03-28T02:20:10.140Z,26.73
2018-03-28T02:22:37.622Z,28.30
2018-03-28T02:25:05.865Z,28.00
2018-03-28T02:27:34.352Z,27.97
2018-03-28T02:30:01.839Z,28.47
2018-03-28T02:32:29.318Z,28.27
2018-03-28T02:34:56.826Z,28.80
2018-03-28T02:37:24.310Z,25.07
2018-03-28T02:39:51.797Z,30.63
2018-03-28T02:42:19.314Z,28.63
2018-03-28T02:44:46.819Z,28.50
2018-03-28T02:47:14.318Z,26.30
2018-03-28T02:49:41.813Z,26.63
2018-03-28T02:52:09.298Z,29.43
2018-03-28T02:54:37.567Z,27.37
2018-03-28T02:57:05.049Z,26.30
2018-03-28T02:59:32.528Z,27.47
2018-03-28T03:02:00.034Z,27.33
2018-03-28T03:04:27.526Z,29.67
2018-03-28T03:06:55.016Z,28.37
2018-03-28T03:09:22.727Z,28.83
2018-03-28T03:11:50.977Z,28.90
2018-03-28T03:14:18.458Z,27.20
2018-03-28T03:16:46.753Z,28.33
2018-03-28T03:19:14.239Z,28.37
2018-03-28T03:21:41.718Z,28.30
2018-03-28T03:24:09.322Z,29.13
2018-03-28T03:26:36.798Z,29.00
2018-03-28T03:29:04.277Z,31.00
2018-03-28T03:31:31.989Z,30.63
2018-03-28T03:34:00.238Z,29.10
2018-03-28T03:36:27.717Z,30.07
2018-03-28T03:38:55.982Z,31.63
2018-03-28T03:41:23.462Z,29.50
2018-03-28T03:43:51.738Z,31.27
2018-03-28T03:46:19.983Z,33.47
2018-03-28T03:48:47.466Z,31.60
2018-03-28T03:51:15.779Z,31.57
2018-03-28T03:53:43.256Z,31.07
2018-03-28T03:56:10.737Z,31.40
2018-03-28T03:58:38.234Z,32.93
2018-03-28T04:01:05.714Z,31.03
2018-03-28T04:03:33.198Z,31.33
2018-03-28T04:06:00.711Z,31.37
2018-03-28T04:08:28.206Z,30.90
2018-03-28T04:10:55.689Z,30.97
2018-03-28T04:13:23.968Z,33.07
2018-03-28T04:15:52.214Z,34.00
2018-03-28T04:18:19.694Z,34.00
2018-03-28T04:20:47.983Z,32.20
2018-03-28T04:23:16.230Z,30.80
2018-03-28T04:25:43.718Z,31.57
2018-03-28T04:28:11.227Z,31.23
2018-03-28T04:30:38.715Z,31.50
2018-03-28T04:33:06.219Z,32.70
2018-03-28T04:35:33.703Z,33.97
2018-03-28T04:38:01.395Z,33.93
2018-03-28T04:40:29.643Z,33.47
2018-03-28T04:42:57.144Z,33.50
2018-03-28T04:45:24.654Z,34.83
2018-03-28T04:47:52.138Z,34.47
2018-03-28T04:50:19.619Z,33.17
2018-03-28T04:52:47.202Z,31.00
2018-03-28T04:55:15.507Z,33.70
2018-03-28T04:57:44.518Z,32.13
2018-03-28T05:00:12.778Z,32.53
2018-03-28T05:02:40.282Z,33.47
2018-03-28T05:05:07.765Z,32.77
2018-03-28T05:07:35.236Z,31.33
2018-03-28T05:10:02.750Z,29.23
2018-03-28T05:12:30.990Z,29.73
2018-03-28T05:14:58.474Z,31.10
2018-03-28T05:17:26.734Z,30.13
2018-03-28T05:19:54.219Z,30.03
2018-03-28T05:22:21.703Z,31.07
2018-03-28T05:24:49.210Z,32.43
2018-03-28T05:27:16.702Z,30.53
2018-03-28T05:29:44.180Z,29.97
2018-03-28T05:32:11.829Z,29.37
2018-03-28T05:34:39.305Z,29.93
2018-03-28T05:37:06.782Z,29.40
2018-03-28T05:39:34.299Z,29.10
2018-03-28T05:42:01.887Z,31.77
2018-03-28T05:44:30.180Z,28.63
2018-03-28T05:46:57.683Z,30.10
2018-03-28T05:49:25.178Z,30.63
2018-03-28T05:51:53.431Z,28.73
2018-03-28T05:54:20.932Z,31.37
2018-03-28T05:56:48.413Z,30.67
2018-03-28T05:59:16.690Z,30.90
2018-03-28T06:01:45.073Z,30.43
2018-03-28T06:04:13.318Z,29.17
2018-03-28T06:06:40.800Z,33.00
2018-03-28T06:09:09.078Z,30.30
2018-03-28T06:11:37.323Z,28.20
2018-03-28T06:14:04.804Z,27.73
2018-03-28T06:16:33.070Z,27.57
2018-03-28T06:19:00.543Z,26.70
2018-03-28T06:21:28.791Z,28.80
2018-03-28T06:23:56.291Z,29.07
2018-03-28T06:26:24.091Z,29.17
2018-03-28T06:28:51.571Z,23.77
2018-03-28T06:31:19.071Z,21.03
2018-03-28T06:33:46.555Z,20.63
2018-03-28T06:36:14.065Z,18.83
2018-03-28T06:38:42.471Z,18.20
2018-03-28T06:41:10.719Z,20.67
2018-03-28T06:43:38.962Z,16.70
2018-03-28T06:46:06.477Z,17.57
2018-03-28T06:48:33.978Z,18.77
2018-03-28T06:51:01.482Z,16.87
2018-03-28T06:53:28.979Z,14.63
2018-03-28T06:55:56.463Z,14.17
2018-03-28T06:58:23.953Z,13.90
2018-03-28T07:00:51.698Z,13.53
2018-03-28T07:03:19.945Z,17.03
2018-03-28T07:05:47.436Z,14.60
2018-03-28T07:08:15.706Z,12.27
2018-03-28T07:10:43.955Z,13.07
2018-03-28T07:13:11.437Z,12.20
2018-03-28T07:15:39.698Z,13.83
2018-03-28T07:18:07.174Z,11.50
2018-03-28T07:20:35.428Z,12.73
2018-03-28T07:23:02.918Z,29.00
2018-03-28T07:25:30.419Z,19.40
2018-03-28T07:27:57.908Z,11.07
2018-03-28T07:30:25.544Z,12.60
2018-03-28T07:32:53.022Z,11.70
2018-03-28T07:35:20.524Z,9.40
2018-03-28T07:37:48.037Z,9.73
2018-03-28T07:40:15.531Z,8.90
2018-03-28T07:42:43.005Z,8.73
2018-03-28T07:45:10.722Z,8.33
2018-03-28T07:47:38.216Z,7.63
2018-03-28T07:50:05.719Z,6.90
2018-03-28T07:52:33.220Z,6.53
2018-03-28T07:55:00.719Z,6.77
2018-03-28T07:57:28.314Z,6.80
2018-03-28T07:59:56.586Z,6.50
2018-03-28T08:02:24.061Z,7.47
2018-03-28T08:04:52.322Z,6.97
2018-03-28T08:07:20.599Z,9.07
2018-03-28T08:09:48.847Z,7.90
2018-03-28T08:12:16.358Z,10.67
2018-03-28T08:14:43.843Z,8.13
2018-03-28T08:17:11.321Z,7.27
2018-03-28T08:19:38.814Z,5.07
2018-03-28T08:22:07.106Z,4.93
2018-03-28T08:24:34.586Z,5.27
2018-03-28T08:27:02.073Z,6.23
2018-03-28T08:29:29.565Z,5.90
2018-03-28T08:31:57.813Z,5.40
2018-03-28T08:34:25.307Z,4.43
2018-03-28T08:36:52.782Z,5.07
2018-03-28T08:39:20.266Z,4.97
2018-03-28T08:41:47.767Z,4.60
2018-03-28T08:44:16.007Z,5.57
2018-03-28T08:46:43.489Z,5.60
2018-03-28T08:49:11.757Z,11.73
2018-03-28T08:51:39.236Z,9.50
2018-03-28T08:54:07.477Z,7.00
2018-03-28T08:56:34.972Z,5.90
2018-03-28T08:59:02.450Z,6.20
2018-03-28T09:01:29.934Z,5.10
2018-03-28T09:03:58.299Z,5.20
2018-03-28T09:06:25.794Z,5.07
2018-03-28T09:08:53.270Z,4.10
2018-03-28T09:11:21.798Z,3.90
2018-03-28T09:13:49.270Z,4.03
2018-03-28T09:16:16.782Z,4.00
2018-03-28T09:18:44.283Z,3.10
2018-03-28T09:21:11.798Z,4.10
2018-03-28T09:23:39.278Z,3.30
2018-03-28T09:26:06.796Z,3.37
2018-03-28T09:28:35.045Z,2.67
2018-03-28T09:31:02.514Z,2.10
2018-03-28T09:33:30.178Z,2.00
2018-03-28T09:35:58.426Z,2.43
2018-03-28T09:38:25.918Z,2.70
2018-03-28T09:40:53.447Z,2.10
2018-03-28T09:43:20.974Z,2.00
2018-03-28T09:45:48.458Z,2.17
2018-03-28T09:48:15.968Z,4.03
2018-03-28T09:50:43.462Z,24.73
2018-03-28T09:53:10.939Z,2.03
2018-03-28T09:55:38.432Z,5.40
2018-03-28T09:58:06.674Z,2.80
2018-03-28T10:00:34.171Z,7.47
2018-03-28T10:03:07.394Z,2.70
2018-03-28T10:05:38.698Z,5.33
2018-03-28T10:08:06.996Z,7.77
2018-03-28T10:10:34.493Z,3.17
2018-03-28T10:13:01.990Z,2.60
2018-03-28T10:15:30.419Z,2.67
2018-03-28T10:17:57.893Z,2.20
2018-03-28T10:20:25.367Z,2.50
2018-03-28T10:22:52.855Z,2.03
2018-03-28T10:25:20.335Z,1.50
2018-03-28T10:27:47.844Z,2.20
2018-03-28T10:30:16.087Z,1.80
2018-03-28T10:32:43.586Z,1.73
2018-03-28T10:35:11.870Z,1.80
2018-03-28T10:37:39.342Z,1.07
2018-03-28T10:40:06.821Z,1.20
2018-03-28T10:42:34.299Z,0.80
2018-03-28T10:45:01.813Z,0.97
2018-03-28T10:47:29.304Z,0.83
2018-03-28T10:49:56.775Z,0.83
2018-03-28T10:52:24.280Z,0.63
2018-03-28T10:54:51.755Z,0.70
2018-03-28T10:57:19.229Z,0.97
2018-03-28T10:59:46.748Z,0.50
2018-03-28T11:02:14.230Z,0.60
2018-03-28T11:04:41.710Z,0.70
2018-03-28T11:07:09.514Z,0.80
2018-03-28T11:09:37.748Z,0.90
2018-03-28T11:12:05.222Z,0.80
2018-03-28T11:14:33.694Z,1.13
2018-03-28T11:17:01.183Z,1.23
2018-03-28T11:19:29.435Z,1.27
2018-03-28T11:21:57.125Z,1.57
2018-03-28T11:24:25.366Z,1.03
2018-03-28T11:26:52.857Z,1.10
2018-03-28T11:29:21.119Z,1.53
2018-03-28T11:31:49.374Z,1.73
2018-03-28T11:34:16.851Z,1.70
2018-03-28T11:36:45.114Z,2.67
2018-03-28T11:39:12.586Z,2.40
2018-03-28T11:41:40.835Z,2.90
2018-03-28T11:44:09.094Z,2.90
2018-03-28T11:46:36.570Z,3.47
2018-03-28T11:49:04.044Z,3.73
2018-03-28T11:51:31.535Z,3.37
2018-03-28T11:53:59.011Z,4.17
2018-03-28T11:56:26.487Z,4.97
2018-03-28T11:58:53.982Z,4.93
2018-03-28T12:01:22.226Z,6.80
2018-03-28T12:03:50.464Z,7.87
2018-03-28T12:06:17.962Z,8.93
2018-03-28T12:08:45.442Z,8.60
2018-03-28T12:11:13.690Z,9.57
2018-03-28T12:13:41.322Z,9.93
2018-03-28T12:16:08.801Z,10.10
2018-03-28T12:18:36.274Z,9.73
2018-03-28T12:21:03.778Z,10.90
2018-03-28T12:23:31.263Z,10.27
2018-03-28T12:25:58.750Z,10.20
2018-03-28T12:28:27.941Z,10.60
2018-03-28T12:30:55.488Z,10.97
2018-03-28T12:33:22.968Z,11.17
2018-03-28T12:35:50.469Z,10.43
2018-03-28T12:38:17.958Z,10.70
2018-03-28T12:40:45.509Z,11.80
2018-03-28T12:43:12.998Z,10.83
2018-03-28T12:45:40.501Z,10.70
2018-03-28T12:48:08.767Z,9.77
2018-03-28T12:50:36.252Z,9.40
2018-03-28T12:53:03.750Z,10.67
2018-03-28T12:55:32.284Z,10.63
2018-03-28T12:58:00.303Z,9.40
2018-03-28T13:00:30.880Z,9.90
2018-03-28T13:02:58.380Z,10.33
2018-03-28T13:05:25.862Z,9.80
2018-03-28T13:07:53.420Z,10.07
2018-03-28T13:10:20.864Z,11.97
2018-03-28T13:12:48.340Z,10.30
2018-03-28T13:15:15.838Z,10.50
2018-03-28T13:17:43.322Z,10.77
2018-03-28T13:20:10.800Z,10.90
2018-03-28T13:22:39.066Z,11.73
2018-03-28T13:25:07.323Z,9.93
2018-03-28T13:27:34.807Z,11.23
2018-03-28T13:30:03.222Z,11.70
2018-03-28T13:32:30.699Z,12.07
2018-03-28T13:34:58.178Z,12.83
2018-03-28T13:37:25.689Z,11.97
2018-03-28T13:39:53.169Z,12.40
2018-03-28T13:42:20.653Z,20.13
2018-03-28T13:44:48.166Z,13.00
2018-03-28T13:47:15.663Z,13.77
2018-03-28T13:49:43.147Z,16.13
2018-03-28T13:52:11.439Z,12.53
2018-03-28T13:54:38.935Z,13.43
2018-03-28T13:57:07.183Z,14.57
2018-03-28T13:59:34.831Z,12.80
2018-03-28T14:02:02.319Z,12.40
2018-03-28T14:04:29.808Z,11.93
2018-03-28T14:06:57.330Z,12.13
2018-03-28T14:09:24.809Z,11.23
2018-03-28T14:11:52.314Z,11.80
2018-03-28T14:14:20.581Z,11.90
2018-03-28T14:16:48.822Z,11.20
2018-03-28T14:19:16.305Z,11.57
2018-03-28T14:21:44.636Z,11.10
2018-03-28T14:24:12.123Z,10.70
2018-03-28T14:26:39.607Z,10.27
2018-03-28T14:29:07.878Z,13.33
2018-03-28T14:31:36.134Z,9.70
2018-03-28T14:34:03.629Z,14.60
2018-03-28T14:36:31.125Z,10.07
2018-03-28T14:38:58.606Z,17.83
2018-03-28T14:41:26.096Z,9.67
2018-03-28T14:43:53.625Z,9.73
2018-03-28T14:46:21.108Z,11.37
2018-03-28T14:48:49.370Z,10.47
2018-03-28T14:51:17.615Z,12.30
2018-03-28T14:53:45.094Z,9.17
2018-03-28T14:56:13.396Z,8.43
2018-03-28T14:58:40.883Z,10.03
2018-03-28T15:01:08.391Z,8.53
2018-03-28T15:03:35.885Z,8.13
2018-03-28T15:06:03.362Z,8.70
2018-03-28T15:08:30.849Z,13.33
2018-03-28T15:10:58.379Z,9.90
2018-03-28T15:13:25.850Z,8.90
2018-03-28T15:15:53.326Z,7.90
2018-03-28T15:18:20.822Z,8.80
2018-03-28T15:20:48.296Z,9.00
2018-03-28T15:23:15.779Z,9.37
2018-03-28T15:25:43.275Z,9.30
2018-03-28T15:28:11.518Z,8.77
2018-03-28T15:30:39.020Z,9.53
2018-03-28T15:33:06.518Z,10.90
2018-03-28T15:35:33.990Z,9.97
2018-03-28T15:38:01.501Z,10.17
2018-03-28T15:40:28.983Z,9.13
2018-03-28T15:42:57.226Z,8.13
2018-03-28T15:45:24.729Z,11.30
2018-03-28T15:47:52.229Z,9.27
2018-03-28T15:50:20.465Z,8.23
2018-03-28T15:52:47.962Z,9.13
2018-03-28T15:55:16.213Z,10.00
2018-03-28T15:57:43.693Z,8.47
2018-03-28T16:00:12.086Z,9.50
2018-03-28T16:02:39.595Z,12.40
2018-03-28T16:05:07.090Z,9.50
2018-03-28T16:07:34.594Z,9.87
2018-03-28T16:10:02.081Z,9.07
2018-03-28T16:12:29.559Z,8.00
2018-03-28T16:14:57.813Z,8.07
2018-03-28T16:17:25.295Z,7.37
2018-03-28T16:19:53.579Z,9.20
2018-03-28T16:22:21.058Z,8.53
2018-03-28T16:24:48.541Z,8.53
2018-03-28T16:27:16.086Z,11.10
2018-03-28T16:29:43.553Z,9.00
2018-03-28T16:32:11.038Z,9.20
2018-03-28T16:34:40.501Z,8.23
2018-03-28T16:37:07.995Z,10.23
2018-03-28T16:39:35.498Z,8.40
2018-03-28T16:42:03.015Z,8.40
2018-03-28T16:44:30.486Z,7.87
2018-03-28T16:46:58.739Z,9.27
2018-03-28T16:49:26.378Z,10.10
2018-03-28T16:51:53.850Z,8.50
2018-03-28T16:54:21.342Z,8.10
2018-03-28T16:56:49.606Z,8.13
2018-03-28T16:59:17.846Z,7.47
2018-03-28T17:01:45.362Z,7.63
2018-03-28T17:04:13.819Z,8.00
2018-03-28T17:06:42.063Z,8.30
2018-03-28T17:09:09.549Z,8.50
2018-03-28T17:11:37.803Z,8.20
2018-03-28T17:14:05.304Z,8.67
2018-03-28T17:16:33.549Z,8.83
2018-03-28T17:19:01.059Z,9.73
2018-03-28T17:21:28.611Z,8.70
2018-03-28T17:23:56.094Z,8.30
2018-03-28T17:26:23.592Z,8.93
2018-03-28T17:28:51.841Z,10.80
2018-03-28T17:31:19.363Z,9.50
2018-03-28T17:33:46.854Z,9.07
2018-03-28T17:36:14.351Z,9.43
2018-03-28T17:38:42.584Z,8.73
2018-03-28T17:41:10.084Z,8.60
2018-03-28T17:43:38.330Z,19.07
2018-03-28T17:46:05.823Z,10.50
2018-03-28T17:48:33.572Z,10.27
2018-03-28T17:51:01.832Z,9.10
2018-03-28T17:53:30.110Z,13.67
2018-03-28T17:55:58.371Z,8.53
2018-03-28T17:58:26.411Z,8.67
2018-03-28T18:00:53.914Z,10.73
2018-03-28T18:03:21.386Z,8.93
2018-03-28T18:05:49.634Z,9.17
2018-03-28T18:08:17.132Z,9.57
2018-03-28T18:10:44.618Z,9.50
2018-03-28T18:13:12.100Z,8.97
2018-03-28T18:15:39.863Z,9.47
2018-03-28T18:18:07.342Z,10.33
2018-03-28T18:20:34.846Z,10.03
2018-03-28T18:23:02.364Z,11.30
2018-03-28T18:25:30.615Z,10.33
2018-03-28T18:28:01.466Z,12.37
2018-03-28T18:30:29.927Z,11.60
2018-03-28T18:32:57.418Z,11.50
2018-03-28T18:35:25.733Z,10.67
2018-03-28T18:37:53.938Z,10.07
2018-03-28T18:40:21.419Z,10.63
2018-03-28T18:42:49.687Z,10.60
2018-03-28T18:45:17.163Z,8.57
2018-03-28T18:47:45.897Z,9.80
2018-03-28T18:50:13.479Z,10.83
2018-03-28T18:52:40.950Z,8.70
2018-03-28T18:55:08.441Z,9.07
2018-03-28T18:57:35.928Z,9.47
2018-03-28T19:00:03.440Z,9.30
2018-03-28T19:02:31.691Z,10.90
2018-03-28T19:04:59.834Z,13.93
2018-03-28T19:07:27.334Z,13.83
2018-03-28T19:09:55.583Z,16.97
2018-03-28T19:12:23.069Z,32.93
2018-03-28T19:14:53.280Z,9.67
2018-03-28T19:17:21.542Z,10.60
2018-03-28T19:19:49.050Z,10.27
2018-03-28T19:22:16.534Z,13.83
2018-03-28T19:24:44.018Z,15.63
2018-03-28T19:27:11.528Z,14.63
2018-03-28T19:29:39.010Z,11.63
2018-03-28T19:32:09.986Z,12.70
2018-03-28T19:34:38.259Z,26.70
2018-03-28T19:37:05.832Z,11.33
2018-03-28T19:39:34.170Z,30.37
2018-03-28T19:42:01.743Z,83.00
2018-03-28T19:44:29.233Z,15.23
2018-03-28T19:46:57.501Z,16.67
2018-03-28T19:49:25.766Z,12.13
2018-03-28T19:51:54.034Z,6.63
2018-03-28T19:54:21.707Z,7.63
2018-03-28T19:56:49.969Z,29.67
2018-03-28T19:59:17.458Z,29.97
2018-03-28T20:01:44.967Z,9.17
2018-03-28T20:04:13.426Z,10.03
2018-03-28T20:06:40.906Z,7.20
2018-03-28T20:09:09.161Z,9.20
2018-03-28T20:11:37.559Z,10.17
2018-03-28T20:14:05.062Z,25.33
2018-03-28T20:16:33.339Z,24.57
2018-03-28T20:19:00.875Z,34.43
2018-03-28T20:21:29.123Z,37.90
2018-03-28T20:23:56.763Z,24.33
2018-03-28T20:26:24.247Z,21.60
2018-03-28T20:28:51.722Z,20.40
2018-03-28T20:31:19.995Z,22.40
2018-03-28T20:33:47.482Z,14.23
2018-03-28T20:36:14.966Z,12.60
2018-03-28T20:38:44.535Z,12.10
2018-03-28T20:41:13.778Z,11.60
2018-03-28T20:43:42.971Z,8.40
2018-03-28T20:46:10.484Z,9.23
2018-03-28T20:48:38.726Z,9.83
2018-03-28T20:51:06.498Z,8.23
2018-03-28T20:53:33.994Z,6.77
2018-03-28T20:56:01.470Z,6.43
2018-03-28T20:58:28.943Z,6.93
2018-03-28T21:00:56.659Z,5.97
2018-03-28T21:03:24.898Z,4.80
2018-03-28T21:05:52.385Z,6.20
2018-03-28T21:08:20.676Z,6.63
2018-03-28T21:10:48.183Z,5.60
2018-03-28T21:13:16.459Z,7.47
2018-03-28T21:15:43.950Z,4.20
2018-03-28T21:18:12.194Z,5.70
2018-03-28T21:20:39.690Z,4.20
2018-03-28T21:23:07.930Z,3.27
2018-03-28T21:25:35.426Z,3.93
2018-03-28T21:28:03.662Z,4.00
2018-03-28T21:30:31.143Z,3.90
2018-03-28T21:32:59.403Z,4.13
2018-03-28T21:35:26.874Z,4.53
2018-03-28T21:37:54.371Z,4.37
2018-03-28T21:40:21.910Z,4.40
2018-03-28T21:42:49.342Z,6.00
2018-03-28T21:45:16.831Z,4.70
2018-03-28T21:47:44.311Z,8.80
2018-03-28T21:50:11.791Z,5.60
2018-03-28T21:52:39.282Z,4.93
2018-03-28T21:55:07.644Z,5.30
2018-03-28T21:57:35.119Z,5.90
2018-03-28T22:00:03.377Z,5.57
2018-03-28T22:02:30.851Z,5.30
2018-03-28T22:04:58.335Z,5.80
2018-03-28T22:07:26.074Z,7.53
2018-03-28T22:09:54.354Z,8.10
2018-03-28T22:12:22.599Z,7.70
2018-03-28T22:14:50.094Z,7.77
2018-03-28T22:17:18.338Z,6.67
2018-03-28T22:19:45.813Z,6.57
2018-03-28T22:22:14.079Z,7.23
2018-03-28T22:24:42.518Z,10.20
2018-03-28T22:27:10.010Z,10.53
2018-03-28T22:29:37.502Z,7.97
2018-03-28T22:32:04.982Z,10.50
2018-03-28T22:34:32.467Z,5.60
2018-03-28T22:37:00.008Z,15.80
2018-03-28T22:39:27.498Z,10.07
2018-03-28T22:41:54.993Z,7.83
2018-03-28T22:44:22.490Z,6.20
2018-03-28T22:46:49.967Z,7.33
2018-03-28T22:49:17.438Z,6.47
2018-03-28T22:51:46.719Z,10.73
2018-03-28T22:54:14.198Z,7.27
2018-03-28T22:56:42.441Z,6.10
2018-03-28T22:59:09.946Z,6.80
2018-03-28T23:01:37.422Z,6.43
2018-03-28T23:04:04.907Z,6.43
2018-03-28T23:06:32.427Z,6.90
2018-03-28T23:08:59.920Z,6.07
2018-03-28T23:11:28.168Z,6.57
2018-03-28T23:13:55.662Z,6.43
2018-03-28T23:16:23.142Z,7.67
2018-03-28T23:18:50.618Z,6.90
2018-03-28T23:21:18.874Z,6.27
2018-03-28T23:23:46.355Z,6.13
2018-03-28T23:26:13.842Z,6.20
2018-03-28T23:28:41.335Z,6.33
2018-03-28T23:31:08.812Z,7.47
2018-03-28T23:33:37.050Z,6.27
2018-03-28T23:36:04.550Z,5.43
2018-03-28T23:38:33.079Z,5.90
2018-03-28T23:41:00.557Z,5.73
2018-03-28T23:43:28.053Z,5.83
2018-03-28T23:45:55.537Z,5.83
2018-03-28T23:48:23.010Z,5.47
2018-03-28T23:50:50.512Z,5.47
2018-03-28T23:53:18.754Z,4.67
2018-03-28T23:55:46.234Z,4.53
2018-03-28T23:58:14.638Z,4.50
